KDBN/DBN METAR and TAF weather

Enter ICAO airport designator
Station Type Date Time Source
KDBN METAR 2021/09/25 12:55 UTC NOAA

KDBN 251255Z AUTO 00000KT 10SM CLR 16/15 A3014 RMK AO2


Station Type Date Time Source
KDBN Decoded METAR 2021/09/25 12:55 UTC NOAA

Dublin, W H 'Bud' Barron Airport, GA, United States (KDBN) 32-33-52N 082-59-06W
Sep 25, 2021 - 08:55 AM EDT / 2021.09.25 1255 UTC
Wind: Calm:0
Visibility: 10 mile(s):0
Sky conditions: clear
Temperature: 60 F (16 C)
Dew Point: 59 F (15 C)
Relative Humidity: 93%
Pressure (altimeter): 30.14 in. Hg (1020 hPa)
ob: KDBN 251255Z AUTO 00000KT 10SM CLR 16/15 A3014 RMK AO2
cycle: 13

Station Type Date Time Source
KDBN TAF UTC NOAA

Error!

Example: see airport list